KJXN/JXN METAR and TAF weather

Enter ICAO airport designator
Station Type Date Time Source
KJXN METAR 2019/08/20 08:56 UTC NOAA

KJXN 200856Z AUTO 16003KT 10SM BKN075 22/19 A3008 RMK AO2 SLP178 T02170194 51004 $


Station Type Date Time Source
KJXN Decoded METAR 2019/08/20 08:56 UTC NOAA

JACKSON COUNTY-REYNOLDS, MI, United States (KJXN) 42-16N 084-28W
Aug 20, 2019 - 04:56 AM EDT / 2019.08.20 0856 UTC
Wind: from the SSE (160 degrees) at 3 MPH (3 KT):0
Visibility: 10 mile(s):0
Sky conditions: mostly cloudy
Temperature: 71.1 F (21.7 C)
Dew Point: 66.9 F (19.4 C)
Relative Humidity: 86%
Pressure (altimeter): 30.08 in. Hg (1018 hPa)
Pressure tendency: 0.01 inches (0.4 hPa) higher than three hours ago
ob: KJXN 200856Z AUTO 16003KT 10SM BKN075 22/19 A3008 RMK AO2 SLP178 T02170194 51004
cycle: 9

Station Type Date Time Source
KJXN TAF 2019/08/20 08:12 UTC NOAA

TAF
AMD KJXN 200811Z 2008/2106 00000KT P6SM SCT070
FM201000 00000KT 2SM BR BKN015
FM201400 18004KT 5SM BR SCT035
FM201500 20005KT P6SM SCT050 BKN250
FM201900 22006KT P6SM VCTS BKN035CB
FM210000 23007KT P6SM BKN040

Example: see airport list